createdAt,value
2023-05-05T00:00:57.753Z,12.30
2023-05-05T00:03:24.994Z,12.11
2023-05-05T00:05:52.211Z,11.98
2023-05-05T00:08:18.705Z,11.98
2023-05-05T00:10:45.599Z,11.95
2023-05-05T00:13:12.132Z,11.91
2023-05-05T00:15:38.628Z,11.98
2023-05-05T00:18:05.142Z,11.91
2023-05-05T00:20:31.802Z,11.95
2023-05-05T00:22:58.325Z,11.97
2023-05-05T00:25:24.825Z,11.97
2023-05-05T00:27:51.447Z,11.84
2023-05-05T00:30:18.302Z,11.79
2023-05-05T00:32:47.171Z,11.69
2023-05-05T00:35:13.704Z,11.72
2023-05-05T00:37:40.200Z,11.66
2023-05-05T00:40:07.627Z,11.60
2023-05-05T00:42:43.960Z,11.55
2023-05-05T00:45:11.408Z,11.47
2023-05-05T00:47:37.934Z,11.45
2023-05-05T00:50:06.385Z,11.38
2023-05-05T00:52:33.826Z,11.36
2023-05-05T00:55:00.298Z,11.34
2023-05-05T00:57:26.817Z,11.37
2023-05-05T00:59:53.278Z,11.25
2023-05-05T01:02:19.884Z,11.18
2023-05-05T01:04:46.380Z,11.12
2023-05-05T01:07:32.879Z,10.99
2023-05-05T01:10:20.239Z,10.94
2023-05-05T01:12:55.998Z,10.77
2023-05-05T01:15:34.775Z,10.85
2023-05-05T01:18:16.795Z,10.81
2023-05-05T01:20:53.482Z,10.86
2023-05-05T01:23:59.017Z,11.07
2023-05-05T01:27:03.055Z,11.09
2023-05-05T01:30:07.134Z,11.01
2023-05-05T01:32:36.063Z,11.05
2023-05-05T01:35:04.537Z,11.16
2023-05-05T01:37:36.884Z,11.20
2023-05-05T01:40:05.235Z,11.18
2023-05-05T01:42:32.197Z,11.08
2023-05-05T01:44:58.660Z,10.78
2023-05-05T01:47:25.149Z,10.67
2023-05-05T01:49:51.696Z,10.66
2023-05-05T01:52:18.263Z,10.60
2023-05-05T01:54:45.316Z,10.28
2023-05-05T01:57:11.785Z,10.24
2023-05-05T01:59:39.614Z,10.23
2023-05-05T02:02:06.309Z,10.28
2023-05-05T02:04:33.107Z,10.28
2023-05-05T02:07:01.498Z,10.35
2023-05-05T02:09:28.493Z,10.50
2023-05-05T02:11:55.681Z,10.62
2023-05-05T02:14:22.154Z,10.71
2023-05-05T02:16:48.605Z,10.75
2023-05-05T02:19:15.061Z,10.77
2023-05-05T02:21:41.563Z,10.88
2023-05-05T02:24:08.405Z,10.93
2023-05-05T02:26:39.325Z,10.75
2023-05-05T02:29:07.891Z,10.55
2023-05-05T02:31:41.971Z,10.65
2023-05-05T02:34:08.522Z,10.55
2023-05-05T02:36:37.981Z,10.67
2023-05-05T02:39:10.866Z,10.55
2023-05-05T02:41:38.146Z,10.53
2023-05-05T02:44:04.682Z,10.52
2023-05-05T02:46:31.459Z,10.51
2023-05-05T02:48:59.665Z,10.41
2023-05-05T02:51:26.293Z,10.40
2023-05-05T02:53:52.849Z,10.54
2023-05-05T02:56:40.747Z,10.65
2023-05-05T02:59:31.239Z,10.72
2023-05-05T03:02:10.854Z,10.82
2023-05-05T03:04:43.116Z,10.98
2023-05-05T03:07:15.246Z,10.88
2023-05-05T03:09:46.124Z,10.68
2023-05-05T03:12:16.913Z,10.48
2023-05-05T03:14:43.466Z,10.32
2023-05-05T03:17:11.265Z,10.32
2023-05-05T03:19:38.856Z,10.50
2023-05-05T03:22:05.397Z,10.60
2023-05-05T03:24:31.894Z,10.57
2023-05-05T03:26:58.371Z,10.27
2023-05-05T03:29:25.470Z,10.06
2023-05-05T03:31:52.058Z,9.94
2023-05-05T03:34:18.569Z,10.18
2023-05-05T03:36:45.035Z,10.34
2023-05-05T03:39:11.748Z,10.37
2023-05-05T03:41:38.238Z,10.33
2023-05-05T03:44:04.883Z,10.33
2023-05-05T03:46:31.388Z,10.29
2023-05-05T03:48:57.897Z,10.10
2023-05-05T03:51:24.743Z,9.87
2023-05-05T03:53:51.220Z,9.98
2023-05-05T03:56:17.723Z,10.03
2023-05-05T03:58:44.261Z,10.02
2023-05-05T04:01:10.835Z,10.09
2023-05-05T04:03:37.514Z,10.09
2023-05-05T04:06:04.537Z,10.22
2023-05-05T04:08:31.161Z,10.25
2023-05-05T04:10:57.654Z,10.24
2023-05-05T04:13:24.392Z,10.25
2023-05-05T04:15:50.896Z,10.34
2023-05-05T04:18:17.393Z,10.56
2023-05-05T04:20:43.903Z,10.74
2023-05-05T04:23:10.488Z,11.07
2023-05-05T04:25:37.065Z,11.22
2023-05-05T04:28:03.556Z,11.35
2023-05-05T04:30:30.363Z,11.56
2023-05-05T04:32:56.987Z,11.59
2023-05-05T04:35:23.497Z,11.58
2023-05-05T04:37:50.051Z,11.42
2023-05-05T04:40:16.579Z,11.32
2023-05-05T04:42:43.063Z,11.24
2023-05-05T04:45:10.078Z,11.21
2023-05-05T04:47:37.774Z,11.33
2023-05-05T04:50:04.529Z,11.35
2023-05-05T04:52:31.005Z,11.47
2023-05-05T04:54:58.061Z,11.54
2023-05-05T04:57:24.540Z,11.56
2023-05-05T04:59:51.044Z,11.74
2023-05-05T05:02:17.545Z,11.91
2023-05-05T05:04:44.014Z,12.00
2023-05-05T05:07:10.552Z,12.19
2023-05-05T05:09:37.014Z,12.38
2023-05-05T05:12:03.744Z,12.63
2023-05-05T05:14:30.305Z,12.92
2023-05-05T05:16:56.837Z,13.11
2023-05-05T05:19:23.338Z,13.30
2023-05-05T05:21:49.814Z,13.45
2023-05-05T05:24:16.455Z,13.43
2023-05-05T05:26:42.978Z,13.45
2023-05-05T05:29:09.450Z,13.61
2023-05-05T05:31:36.798Z,13.88
2023-05-05T05:34:03.379Z,14.07
2023-05-05T05:36:29.874Z,14.36
2023-05-05T05:38:56.407Z,14.64
2023-05-05T05:41:22.922Z,14.87
2023-05-05T05:43:49.407Z,15.08
2023-05-05T05:46:15.939Z,15.10
2023-05-05T05:48:42.488Z,15.27
2023-05-05T05:51:08.959Z,15.36
2023-05-05T05:53:35.607Z,15.38
2023-05-05T05:56:02.076Z,15.43
2023-05-05T05:58:28.568Z,15.34
2023-05-05T06:00:55.058Z,15.47
2023-05-05T06:03:21.671Z,15.27
2023-05-05T06:05:48.414Z,15.11
2023-05-05T06:08:14.913Z,15.08
2023-05-05T06:10:42.011Z,14.86
2023-05-05T06:13:08.586Z,14.85
2023-05-05T06:15:35.080Z,14.79
2023-05-05T06:18:01.868Z,14.86
2023-05-05T06:20:28.485Z,15.09
2023-05-05T06:22:55.186Z,15.32
2023-05-05T06:25:22.015Z,15.24
2023-05-05T06:27:48.718Z,14.81
2023-05-05T06:30:15.214Z,14.94
2023-05-05T06:32:41.832Z,14.99
2023-05-05T06:35:08.959Z,15.17
2023-05-05T06:37:35.424Z,15.65
2023-05-05T06:40:02.250Z,15.67
2023-05-05T06:42:30.976Z,15.73
2023-05-05T06:44:57.495Z,15.41
2023-05-05T06:47:23.996Z,15.69
2023-05-05T06:49:50.533Z,15.76
2023-05-05T06:52:16.993Z,15.91
2023-05-05T06:54:43.594Z,16.35
2023-05-05T06:57:10.084Z,16.53
2023-05-05T06:59:36.995Z,16.85
2023-05-05T07:02:03.528Z,17.09
2023-05-05T07:04:30.017Z,17.26
2023-05-05T07:06:58.292Z,17.65
2023-05-05T07:09:24.790Z,17.86
2023-05-05T07:11:51.281Z,17.85
2023-05-05T07:14:17.753Z,17.58
2023-05-05T07:16:44.296Z,17.26
2023-05-05T07:19:10.796Z,16.96
2023-05-05T07:21:37.293Z,16.42
2023-05-05T07:24:04.085Z,16.28
2023-05-05T07:26:30.687Z,16.29
2023-05-05T07:28:58.646Z,16.45
2023-05-05T07:31:25.837Z,16.08
2023-05-05T07:33:52.316Z,15.86
2023-05-05T07:36:18.825Z,15.85
2023-05-05T07:38:45.305Z,15.58
2023-05-05T07:41:12.950Z,15.33
2023-05-05T07:43:42.282Z,15.17
2023-05-05T07:46:10.069Z,14.40
2023-05-05T07:48:36.583Z,13.31
2023-05-05T07:51:03.127Z,12.45
2023-05-05T07:53:29.587Z,12.01
2023-05-05T07:55:56.037Z,12.25
2023-05-05T07:58:22.719Z,12.19
2023-05-05T08:00:50.209Z,12.41
2023-05-05T08:03:17.283Z,12.60
2023-05-05T08:05:43.752Z,12.59
2023-05-05T08:08:10.453Z,12.73
2023-05-05T08:10:36.883Z,12.82
2023-05-05T08:13:03.378Z,12.93
2023-05-05T08:15:29.841Z,12.80
2023-05-05T08:17:56.485Z,12.73
2023-05-05T08:20:26.004Z,12.70
2023-05-05T08:22:52.473Z,12.72
2023-05-05T08:25:18.972Z,12.73
2023-05-05T08:27:45.838Z,12.83
2023-05-05T08:30:12.496Z,12.89
2023-05-05T08:32:39.073Z,12.74
2023-05-05T08:35:06.454Z,12.86
2023-05-05T08:37:33.290Z,13.06
2023-05-05T08:40:00.496Z,13.20
2023-05-05T08:42:36.951Z,13.28
2023-05-05T08:45:05.967Z,13.55
2023-05-05T08:47:32.744Z,13.82
2023-05-05T08:49:59.328Z,13.96
2023-05-05T08:52:25.819Z,13.76
2023-05-05T08:55:28.266Z,13.76
2023-05-05T08:57:56.612Z,13.57
2023-05-05T09:00:23.342Z,13.56
2023-05-05T09:02:50.085Z,13.66
2023-05-05T09:05:17.674Z,13.60
2023-05-05T09:07:44.291Z,13.93
2023-05-05T09:10:11.442Z,14.19
2023-05-05T09:12:40.411Z,14.39
2023-05-05T09:15:13.955Z,14.24
2023-05-05T09:17:40.729Z,14.49
2023-05-05T09:20:08.682Z,14.77
2023-05-05T09:22:38.753Z,14.64
2023-05-05T09:25:06.183Z,14.80
2023-05-05T09:27:36.793Z,14.95
2023-05-05T09:30:04.762Z,15.12
2023-05-05T09:32:35.167Z,15.25
2023-05-05T09:35:01.678Z,15.32
2023-05-05T09:37:31.521Z,15.32
2023-05-05T09:39:59.269Z,15.48
2023-05-05T09:42:25.730Z,15.85
2023-05-05T09:44:52.193Z,16.16
2023-05-05T09:47:29.405Z,16.67
2023-05-05T09:49:58.592Z,17.16
2023-05-05T09:52:25.112Z,17.45
2023-05-05T09:54:56.171Z,17.51
2023-05-05T09:57:33.285Z,17.56
2023-05-05T10:00:01.207Z,17.67
2023-05-05T10:02:35.441Z,18.11
2023-05-05T10:05:08.219Z,18.45
2023-05-05T10:07:35.391Z,18.61
2023-05-05T10:10:03.581Z,18.80
2023-05-05T10:12:30.079Z,19.13
2023-05-05T10:14:56.681Z,19.16
2023-05-05T10:17:23.413Z,19.48
2023-05-05T10:19:53.105Z,19.38
2023-05-05T10:22:20.773Z,19.57
2023-05-05T10:24:50.264Z,19.37
2023-05-05T10:27:19.545Z,18.97
2023-05-05T10:29:57.763Z,18.77
2023-05-05T10:32:54.440Z,18.51
2023-05-05T10:35:24.149Z,18.72
2023-05-05T10:37:50.929Z,18.58
2023-05-05T10:40:19.931Z,18.09
2023-05-05T10:42:46.435Z,18.13
2023-05-05T10:45:13.011Z,18.11
2023-05-05T10:47:40.305Z,18.22
2023-05-05T10:50:21.518Z,18.15
2023-05-05T10:53:15.768Z,18.56
2023-05-05T10:56:01.624Z,18.09
2023-05-05T10:58:34.948Z,18.99
2023-05-05T11:01:05.796Z,19.83
2023-05-05T11:03:32.477Z,19.77
2023-05-05T11:06:07.969Z,19.37
2023-05-05T11:08:42.179Z,19.31
2023-05-05T11:11:10.460Z,19.28
2023-05-05T11:13:38.163Z,19.89
2023-05-05T11:16:05.327Z,20.25
2023-05-05T11:18:38.555Z,20.58
2023-05-05T11:21:15.426Z,20.98
2023-05-05T11:23:46.493Z,19.83
2023-05-05T11:26:13.211Z,19.94
2023-05-05T11:29:02.505Z,20.09
2023-05-05T11:31:30.565Z,21.06
2023-05-05T11:34:23.939Z,21.48
2023-05-05T11:36:50.417Z,21.09
2023-05-05T11:39:24.115Z,20.84
2023-05-05T11:42:10.147Z,20.95
2023-05-05T11:44:37.387Z,21.31
2023-05-05T11:47:06.909Z,21.92
2023-05-05T11:49:34.479Z,22.33
2023-05-05T11:52:08.239Z,21.77
2023-05-05T11:54:35.794Z,21.48
2023-05-05T11:57:05.094Z,21.93
2023-05-05T11:59:32.148Z,22.14
2023-05-05T12:01:58.903Z,21.75
2023-05-05T12:04:25.553Z,21.87
2023-05-05T12:06:52.029Z,22.64
2023-05-05T12:09:19.602Z,22.48
2023-05-05T12:11:52.219Z,21.70
2023-05-05T12:14:18.708Z,21.43
2023-05-05T12:16:55.627Z,21.19
2023-05-05T12:19:22.136Z,20.91
2023-05-05T12:21:48.618Z,20.42
2023-05-05T12:24:15.202Z,20.51
2023-05-05T12:26:41.781Z,20.65
2023-05-05T12:29:08.458Z,20.35
2023-05-05T12:31:35.924Z,20.45
2023-05-05T12:34:03.185Z,20.95
2023-05-05T12:36:30.719Z,21.63
2023-05-05T12:38:57.572Z,22.18
2023-05-05T12:41:24.075Z,22.88
2023-05-05T12:44:00.639Z,22.82
2023-05-05T12:46:29.573Z,22.41
2023-05-05T12:49:06.480Z,22.68
2023-05-05T12:51:33.701Z,22.26
2023-05-05T12:54:07.729Z,22.11
2023-05-05T12:56:38.905Z,22.39
2023-05-05T12:59:21.095Z,22.40
2023-05-05T13:01:52.687Z,22.41
2023-05-05T13:04:19.832Z,21.84
2023-05-05T13:06:47.272Z,21.65
2023-05-05T13:09:30.410Z,21.38
2023-05-05T13:11:56.934Z,22.04
2023-05-05T13:14:23.550Z,22.78
2023-05-05T13:16:50.065Z,22.01
2023-05-05T13:19:16.585Z,21.49
2023-05-05T13:21:43.059Z,21.34
2023-05-05T13:24:25.240Z,21.05
2023-05-05T13:26:56.522Z,21.08
2023-05-05T13:29:26.146Z,21.30
2023-05-05T13:31:54.923Z,21.09
2023-05-05T13:34:21.560Z,20.80
2023-05-05T13:36:48.431Z,20.72
2023-05-05T13:39:14.951Z,20.39
2023-05-05T13:41:41.517Z,20.34
2023-05-05T13:44:08.053Z,20.29
2023-05-05T13:46:34.600Z,19.87
2023-05-05T13:49:01.117Z,19.95
2023-05-05T13:51:27.844Z,19.84
2023-05-05T13:53:54.343Z,19.31
2023-05-05T13:56:20.845Z,17.81
2023-05-05T13:58:47.334Z,17.40
2023-05-05T14:01:13.883Z,16.96
2023-05-05T14:03:40.537Z,16.03
2023-05-05T14:06:08.937Z,15.84
2023-05-05T14:08:35.417Z,15.17
2023-05-05T14:11:03.129Z,15.19
2023-05-05T14:13:29.583Z,15.03
2023-05-05T14:15:58.188Z,14.93
2023-05-05T14:18:25.538Z,14.87
2023-05-05T14:20:52.017Z,14.51
2023-05-05T14:23:18.485Z,14.45
2023-05-05T14:25:44.958Z,14.22
2023-05-05T14:28:11.437Z,14.32
2023-05-05T14:30:37.879Z,14.12
2023-05-05T14:33:04.413Z,14.23
2023-05-05T14:35:31.402Z,14.23
2023-05-05T14:37:57.849Z,14.15
2023-05-05T14:40:24.301Z,14.04
2023-05-05T14:42:50.979Z,13.80
2023-05-05T14:45:17.428Z,13.80
2023-05-05T14:47:43.991Z,13.85
2023-05-05T14:50:10.780Z,13.82
2023-05-05T14:52:39.168Z,13.87
2023-05-05T14:55:06.687Z,13.99
2023-05-05T14:57:33.239Z,14.01
2023-05-05T14:59:59.673Z,13.95
2023-05-05T15:02:26.181Z,13.95
2023-05-05T15:04:53.090Z,13.88
2023-05-05T15:07:20.469Z,13.94
2023-05-05T15:09:46.936Z,13.80
2023-05-05T15:12:13.394Z,13.66
2023-05-05T15:14:39.882Z,13.46
2023-05-05T15:17:06.495Z,13.46
2023-05-05T15:19:32.929Z,13.48
2023-05-05T15:21:59.420Z,13.60
2023-05-05T15:24:26.199Z,13.62
2023-05-05T15:26:52.646Z,13.74
2023-05-05T15:29:19.104Z,13.87
2023-05-05T15:31:45.608Z,14.00
2023-05-05T15:34:12.076Z,14.03
2023-05-05T15:36:38.522Z,14.00
2023-05-05T15:39:05.030Z,14.07
2023-05-05T15:41:33.567Z,14.07
2023-05-05T15:44:00.733Z,13.90
2023-05-05T15:46:27.270Z,13.90
2023-05-05T15:48:53.785Z,13.81
2023-05-05T15:51:20.256Z,13.74
2023-05-05T15:53:47.186Z,13.91
2023-05-05T15:56:13.656Z,13.99
2023-05-05T15:58:40.233Z,13.97
2023-05-05T16:01:06.772Z,14.04
2023-05-05T16:03:33.390Z,14.11
2023-05-05T16:05:59.903Z,14.19
2023-05-05T16:08:26.542Z,14.23
2023-05-05T16:10:53.018Z,14.24
2023-05-05T16:13:19.545Z,14.38
2023-05-05T16:15:46.290Z,14.48
2023-05-05T16:18:12.840Z,14.59
2023-05-05T16:20:39.364Z,14.46
2023-05-05T16:23:06.856Z,14.22
2023-05-05T16:25:33.398Z,14.16
2023-05-05T16:28:01.535Z,14.14
2023-05-05T16:30:29.191Z,14.22
2023-05-05T16:32:55.739Z,14.17
2023-05-05T16:35:23.024Z,14.40
2023-05-05T16:37:49.572Z,14.31
2023-05-05T16:40:16.045Z,14.35
2023-05-05T16:42:44.511Z,14.19
2023-05-05T16:45:11.528Z,14.06
2023-05-05T16:47:38.584Z,13.96
2023-05-05T16:50:05.714Z,13.91
2023-05-05T16:52:32.168Z,14.01
2023-05-05T16:54:58.641Z,13.96
2023-05-05T16:57:25.185Z,13.99
2023-05-05T16:59:54.641Z,14.02
2023-05-05T17:02:21.139Z,14.11
2023-05-05T17:04:47.631Z,13.96
2023-05-05T17:07:14.140Z,14.01
2023-05-05T17:09:40.835Z,13.89
2023-05-05T17:12:07.623Z,13.84
2023-05-05T17:14:34.156Z,13.74
2023-05-05T17:17:00.659Z,13.73
2023-05-05T17:19:27.181Z,13.71
2023-05-05T17:21:55.072Z,13.56
2023-05-05T17:24:21.563Z,13.40
2023-05-05T17:26:48.382Z,13.42
2023-05-05T17:29:19.538Z,13.44
2023-05-05T17:31:46.650Z,13.35
2023-05-05T17:34:13.187Z,13.34
2023-05-05T17:36:39.692Z,13.32
2023-05-05T17:39:08.594Z,13.23
2023-05-05T17:41:35.381Z,13.14
2023-05-05T17:44:01.889Z,13.26
2023-05-05T17:46:28.613Z,13.24
2023-05-05T17:48:55.412Z,13.24
2023-05-05T17:51:24.093Z,13.32
2023-05-05T17:53:50.626Z,13.37
2023-05-05T17:56:17.303Z,13.40
2023-05-05T17:58:43.791Z,13.42
2023-05-05T18:01:13.658Z,13.48
2023-05-05T18:03:41.072Z,13.44
2023-05-05T18:06:07.711Z,13.41
2023-05-05T18:08:34.298Z,13.31
2023-05-05T18:11:02.078Z,13.26
2023-05-05T18:13:30.782Z,13.32
2023-05-05T18:15:57.532Z,13.25
2023-05-05T18:18:25.477Z,13.21
2023-05-05T18:20:51.975Z,13.18
2023-05-05T18:23:18.453Z,13.15
2023-05-05T18:25:44.928Z,13.03
2023-05-05T18:28:13.196Z,12.97
2023-05-05T18:30:39.787Z,12.94
2023-05-05T18:33:06.436Z,12.93
2023-05-05T18:35:33.995Z,12.84
2023-05-05T18:38:00.510Z,12.78
2023-05-05T18:40:27.293Z,12.68
2023-05-05T18:42:54.073Z,12.65
2023-05-05T18:45:21.693Z,12.69
2023-05-05T18:47:48.639Z,12.68
2023-05-05T18:50:15.486Z,12.63
2023-05-05T18:52:41.970Z,12.57
2023-05-05T18:55:09.138Z,12.52
2023-05-05T18:57:35.775Z,12.51
2023-05-05T19:00:02.565Z,12.48
2023-05-05T19:02:29.113Z,12.57
2023-05-05T19:04:55.805Z,12.54
2023-05-05T19:07:34.241Z,12.54
2023-05-05T19:10:02.818Z,12.55
2023-05-05T19:12:30.311Z,12.60
2023-05-05T19:14:56.828Z,12.60
2023-05-05T19:17:23.326Z,12.55
2023-05-05T19:19:50.035Z,12.61
2023-05-05T19:22:18.098Z,12.60
2023-05-05T19:24:44.600Z,12.66
2023-05-05T19:27:16.464Z,12.73
2023-05-05T19:29:43.451Z,12.67
2023-05-05T19:32:10.532Z,12.69
2023-05-05T19:34:37.158Z,12.66
2023-05-05T19:37:03.706Z,12.81
2023-05-05T19:39:30.519Z,12.83
2023-05-05T19:41:57.021Z,12.73
2023-05-05T19:44:24.010Z,12.75
2023-05-05T19:46:50.627Z,12.89
2023-05-05T19:49:17.157Z,12.99
2023-05-05T19:51:50.569Z,13.00
2023-05-05T19:54:17.035Z,12.95
2023-05-05T19:56:44.456Z,12.94
2023-05-05T19:59:11.738Z,12.99
2023-05-05T20:01:38.251Z,13.03
2023-05-05T20:04:04.847Z,13.01
2023-05-05T20:06:32.174Z,13.10
2023-05-05T20:08:58.749Z,13.09
2023-05-05T20:11:26.008Z,13.05
2023-05-05T20:13:52.996Z,13.04
2023-05-05T20:16:19.587Z,13.07
2023-05-05T20:18:46.676Z,13.08
2023-05-05T20:21:13.306Z,13.11
2023-05-05T20:23:39.826Z,13.15
2023-05-05T20:26:06.403Z,13.27
2023-05-05T20:28:33.013Z,13.14
2023-05-05T20:31:01.173Z,13.12
2023-05-05T20:33:28.307Z,13.04
2023-05-05T20:35:56.289Z,13.07
2023-05-05T20:38:23.110Z,12.84
2023-05-05T20:40:50.037Z,12.66
2023-05-05T20:43:16.585Z,12.72
2023-05-05T20:45:43.115Z,12.67
2023-05-05T20:48:11.321Z,12.66
2023-05-05T20:50:38.662Z,12.62
2023-05-05T20:55:53.016Z,12.69
2023-05-05T20:58:19.562Z,12.48
2023-05-05T21:00:47.581Z,12.48
2023-05-05T21:03:14.158Z,12.33
2023-05-05T21:05:41.293Z,12.28
2023-05-05T21:08:08.818Z,12.29
2023-05-05T21:10:35.900Z,12.34
2023-05-05T21:13:02.632Z,12.16
2023-05-05T21:15:31.417Z,12.22
2023-05-05T21:18:00.090Z,12.16
2023-05-05T21:20:29.373Z,12.05
2023-05-05T21:22:56.815Z,12.03
2023-05-05T21:25:23.653Z,11.98
2023-05-05T21:27:50.442Z,11.92
2023-05-05T21:30:17.502Z,11.81
2023-05-05T21:32:45.311Z,11.85
2023-05-05T21:35:12.555Z,11.64
2023-05-05T21:37:39.436Z,11.53
2023-05-05T21:40:13.416Z,11.54
2023-05-05T21:42:42.636Z,11.37
2023-05-05T21:45:10.367Z,11.08
2023-05-05T21:47:36.952Z,11.02
2023-05-05T21:50:04.821Z,10.99
2023-05-05T21:52:31.463Z,10.95
2023-05-05T21:54:57.954Z,10.92
2023-05-05T21:57:24.534Z,10.63
2023-05-05T21:59:51.069Z,10.66
2023-05-05T22:02:17.658Z,10.65
2023-05-05T22:04:48.867Z,10.52
2023-05-05T22:07:15.856Z,10.60
2023-05-05T22:09:43.419Z,10.48
2023-05-05T22:12:10.283Z,10.41
2023-05-05T22:14:38.352Z,10.71
2023-05-05T22:17:04.924Z,10.88
2023-05-05T22:19:32.116Z,11.00
2023-05-05T22:21:58.842Z,10.99
2023-05-05T22:24:25.590Z,10.77
2023-05-05T22:26:52.247Z,10.69
2023-05-05T22:29:18.765Z,10.85
2023-05-05T22:31:45.274Z,10.76
2023-05-05T22:34:12.029Z,10.74
2023-05-05T22:36:38.801Z,10.83
2023-05-05T22:39:05.621Z,10.87
2023-05-05T22:41:32.080Z,10.92
2023-05-05T22:43:58.574Z,10.94
2023-05-05T22:46:26.201Z,10.97
2023-05-05T22:48:54.100Z,11.17
2023-05-05T22:51:20.585Z,11.18
2023-05-05T22:53:47.081Z,11.38
2023-05-05T22:56:13.708Z,11.48
2023-05-05T22:58:40.385Z,11.53
2023-05-05T23:01:07.403Z,11.61
2023-05-05T23:03:34.279Z,11.72
2023-05-05T23:06:01.857Z,11.74
2023-05-05T23:08:31.565Z,11.82
2023-05-05T23:10:59.836Z,11.82
2023-05-05T23:13:26.409Z,11.86
2023-05-05T23:15:54.269Z,11.97
2023-05-05T23:18:23.849Z,11.96
2023-05-05T23:20:51.044Z,11.96
2023-05-05T23:23:17.520Z,11.95
2023-05-05T23:25:44.302Z,12.05
2023-05-05T23:28:10.782Z,12.02
2023-05-05T23:30:37.261Z,11.86
2023-05-05T23:33:05.077Z,11.77
2023-05-05T23:35:31.637Z,11.77
2023-05-05T23:37:58.102Z,11.77
2023-05-05T23:40:24.570Z,11.81
2023-05-05T23:42:51.066Z,11.82
2023-05-05T23:45:19.478Z,11.79
2023-05-05T23:47:46.238Z,11.69
2023-05-05T23:50:12.739Z,11.61
2023-05-05T23:52:39.552Z,11.70
2023-05-05T23:55:06.835Z,11.64
2023-05-05T23:57:39.013Z,11.65
